Time,TemperatureF,DewpointF,PressureIn,WindDirection,WindDirectionDegrees,WindSpeedMPH,WindSpeedGustMPH,Humidity,HourlyPrecipIn,Conditions,Clouds,dailyrainin,SolarRadiationWatts/m^2,SoftwareType,DateUTC
2013-06-17 00:01:00,57.6,55.3,29.75,South,179,0.0,0.0,92,0.00,,,0.00,0,Wunderground v.1.15,2013-06-17 04:01:00,
2013-06-17 00:02:00,57.5,55.2,29.75,South,179,0.0,0.0,92,0.00,,,0.00,0,Wunderground v.1.15,2013-06-17 04:02:00,
2013-06-17 00:03:00,57.5,55.2,29.75,South,179,0.0,0.0,92,0.00,,,0.00,0,Wunderground v.1.15,2013-06-17 04:03:00,
2013-06-17 00:08:00,57.3,55.0,29.75,South,179,0.0,0.0,92,0.00,,,0.00,0,Wunderground v.1.15,2013-06-17 04:08:00,
2013-06-17 00:11:00,57.2,54.9,29.75,South,179,0.0,0.0,92,0.00,,,0.00,0,Wunderground v.1.15,2013-06-17 04:11:00,
2013-06-17 00:16:00,57.0,54.7,29.76,South,179,0.0,0.0,92,0.00,,,0.00,0,Wunderground v.1.15,2013-06-17 04:16:00,
2013-06-17 00:22:00,57.2,55.2,29.76,South,179,0.0,0.0,93,0.00,,,0.00,0,Wunderground v.1.15,2013-06-17 04:22:00,
2013-06-17 00:28:00,57.0,55.0,29.76,South,179,0.0,0.0,93,0.00,,,0.00,0,Wunderground v.1.15,2013-06-17 04:28:00,
2013-06-17 00:33:00,57.0,55.0,29.75,South,179,0.0,0.0,93,0.00,,,0.00,0,Wunderground v.1.15,2013-06-17 04:33:00,
2013-06-17 00:39:00,56.9,54.9,29.75,South,179,0.0,0.0,93,0.00,,,0.00,0,Wunderground v.1.15,2013-06-17 04:39:00,
2013-06-17 00:46:00,56.7,54.7,29.75,South,179,0.0,0.0,93,0.00,,,0.00,0,Wunderground v.1.15,2013-06-17 04:46:00,
2013-06-17 00:51:00,56.7,54.7,29.75,South,179,0.0,0.0,93,0.00,,,0.00,0,Wunderground v.1.15,2013-06-17 04:51:00,
2013-06-17 00:56:00,56.5,54.5,29.75,South,179,0.0,0.0,93,0.00,,,0.00,0,Wunderground v.1.15,2013-06-17 04:56:00,
2013-06-17 01:02:00,56.3,54.3,29.75,South,179,0.0,0.0,93,0.00,,,0.00,0,Wunderground v.1.15,2013-06-17 05:02:00,
2013-06-17 01:08:00,56.2,54.2,29.75,South,179,0.0,0.0,93,0.00,,,0.00,0,Wunderground v.1.15,2013-06-17 05:08:00,
2013-06-17 01:13:00,56.0,54.0,29.75,South,179,0.0,0.0,93,0.00,,,0.00,0,Wunderground v.1.15,2013-06-17 05:13:00,
2013-06-17 01:18:00,56.0,54.0,29.75,South,179,0.0,0.0,93,0.00,,,0.00,0,Wunderground v.1.15,2013-06-17 05:18:00,
2013-06-17 01:24:00,55.9,53.9,29.75,South,179,0.0,0.0,93,0.00,,,0.00,0,Wunderground v.1.15,2013-06-17 05:24:00,
2013-06-17 01:30:00,55.9,53.9,29.75,South,179,0.0,0.0,93,0.00,,,0.00,0,Wunderground v.1.15,2013-06-17 05:30:00,
2013-06-17 01:36:00,55.7,53.7,29.75,South,179,0.0,0.0,93,0.00,,,0.00,0,Wunderground v.1.15,2013-06-17 05:36:00,
2013-06-17 01:41:00,55.6,53.6,29.75,South,179,0.0,0.0,93,0.00,,,0.00,0,Wunderground v.1.15,2013-06-17 05:41:00,
2013-06-17 01:47:00,55.6,53.6,29.74,South,179,0.0,0.0,93,0.00,,,0.00,0,Wunderground v.1.15,2013-06-17 05:47:00,
2013-06-17 01:53:00,55.4,53.4,29.74,South,179,0.0,0.0,93,0.00,,,0.00,0,Wunderground v.1.15,2013-06-17 05:53:00,
2013-06-17 01:59:00,55.4,53.4,29.74,South,179,0.0,0.0,93,0.00,,,0.00,0,Wunderground v.1.15,2013-06-17 05:59:00,
2013-06-17 02:04:00,55.6,53.9,29.74,South,179,0.0,0.0,94,0.00,,,0.00,0,Wunderground v.1.15,2013-06-17 06:04:00,
2013-06-17 02:11:00,55.9,54.2,29.74,South,179,0.0,0.0,94,0.00,,,0.00,0,Wunderground v.1.15,2013-06-17 06:11:00,
2013-06-17 02:16:00,55.9,54.2,29.74,South,179,0.0,0.0,94,0.00,,,0.00,0,Wunderground v.1.15,2013-06-17 06:16:00,
2013-06-17 02:22:00,55.9,54.2,29.74,South,179,0.0,0.0,94,0.00,,,0.00,0,Wunderground v.1.15,2013-06-17 06:22:00,
2013-06-17 02:28:00,55.7,53.7,29.74,South,179,0.0,0.0,93,0.00,,,0.00,0,Wunderground v.1.15,2013-06-17 06:28:00,
2013-06-17 02:34:00,55.7,54.0,29.74,South,179,0.0,0.0,94,0.00,,,0.00,0,Wunderground v.1.15,2013-06-17 06:34:00,
2013-06-17 02:39:00,55.7,54.0,29.74,South,179,0.0,0.0,94,0.00,,,0.00,0,Wunderground v.1.15,2013-06-17 06:39:00,
2013-06-17 02:45:00,55.7,54.0,29.74,South,179,0.0,0.0,94,0.00,,,0.00,0,Wunderground v.1.15,2013-06-17 06:45:00,
2013-06-17 02:51:00,55.4,53.4,29.74,South,179,0.0,0.0,93,0.00,,,0.00,0,Wunderground v.1.15,2013-06-17 06:51:00,
2013-06-17 02:56:00,55.3,53.3,29.74,South,179,0.0,0.0,93,0.00,,,0.00,0,Wunderground v.1.15,2013-06-17 06:56:00,
2013-06-17 03:02:00,55.0,53.3,29.74,South,179,0.0,0.0,94,0.00,,,0.00,0,Wunderground v.1.15,2013-06-17 07:02:00,
2013-06-17 03:08:00,54.8,53.1,29.74,South,179,0.0,0.0,94,0.00,,,0.00,0,Wunderground v.1.15,2013-06-17 07:08:00,
2013-06-17 03:14:00,54.7,53.0,29.74,South,179,0.0,0.0,94,0.00,,,0.00,0,Wunderground v.1.15,2013-06-17 07:14:00,
2013-06-17 03:20:00,54.5,52.8,29.74,South,179,0.0,0.0,94,0.00,,,0.00,0,Wunderground v.1.15,2013-06-17 07:20:00,
2013-06-17 03:26:00,54.4,52.7,29.74,South,179,0.0,0.0,94,0.00,,,0.00,0,Wunderground v.1.15,2013-06-17 07:26:00,
2013-06-17 03:31:00,54.4,52.7,29.73,South,179,0.0,0.0,94,0.00,,,0.00,0,Wunderground v.1.15,2013-06-17 07:31:00,
2013-06-17 03:36:00,54.4,52.7,29.73,South,179,0.0,0.0,94,0.00,,,0.00,0,Wunderground v.1.15,2013-06-17 07:36:00,
2013-06-17 03:41:00,54.4,52.7,29.73,South,179,0.0,0.0,94,0.00,,,0.00,0,Wunderground v.1.15,2013-06-17 07:41:00,
2013-06-17 03:47:00,54.2,52.5,29.73,South,179,0.0,0.0,94,0.00,,,0.00,0,Wunderground v.1.15,2013-06-17 07:47:00,
2013-06-17 03:52:00,54.4,52.7,29.73,South,179,0.0,0.0,94,0.00,,,0.00,0,Wunderground v.1.15,2013-06-17 07:52:00,
2013-06-17 03:58:00,54.4,52.7,29.73,South,179,0.0,0.0,94,0.00,,,0.00,0,Wunderground v.1.15,2013-06-17 07:58:00,
2013-06-17 04:04:00,54.4,52.7,29.73,South,179,0.0,0.0,94,0.00,,,0.00,0,Wunderground v.1.15,2013-06-17 08:04:00,
2013-06-17 04:10:00,54.2,52.5,29.73,South,179,0.0,0.0,94,0.00,,,0.00,0,Wunderground v.1.15,2013-06-17 08:10:00,
2013-06-17 04:15:00,54.4,52.7,29.73,South,179,0.0,0.0,94,0.00,,,0.00,0,Wunderground v.1.15,2013-06-17 08:15:00,
2013-06-17 04:21:00,54.4,52.7,29.73,South,179,0.0,0.0,94,0.00,,,0.00,0,Wunderground v.1.15,2013-06-17 08:21:00,
2013-06-17 04:26:00,54.5,52.8,29.73,South,179,0.0,1.0,94,0.00,,,0.00,0,Wunderground v.1.15,2013-06-17 08:26:00,
2013-06-17 04:32:00,54.5,52.8,29.73,South,179,0.0,0.0,94,0.00,,,0.00,0,Wunderground v.1.15,2013-06-17 08:32:00,
2013-06-17 04:37:00,54.5,52.8,29.73,South,179,0.0,0.0,94,0.00,,,0.00,0,Wunderground v.1.15,2013-06-17 08:37:00,
2013-06-17 04:43:00,54.4,52.7,29.73,South,179,0.0,0.0,94,0.00,,,0.00,0,Wunderground v.1.15,2013-06-17 08:43:00,
2013-06-17 04:49:00,54.4,52.7,29.74,South,179,0.0,0.0,94,0.00,,,0.00,0,Wunderground v.1.15,2013-06-17 08:49:00,
2013-06-17 04:55:00,54.4,52.7,29.74,South,179,0.0,0.0,94,0.00,,,0.00,0,Wunderground v.1.15,2013-06-17 08:55:00,
2013-06-17 05:01:00,54.5,52.8,29.74,South,179,0.0,0.0,94,0.00,,,0.00,0,Wunderground v.1.15,2013-06-17 09:01:00,
2013-06-17 05:06:00,54.7,53.0,29.74,South,179,0.0,0.0,94,0.00,,,0.00,0,Wunderground v.1.15,2013-06-17 09:06:00,
2013-06-17 05:11:00,54.5,52.8,29.74,South,179,0.0,0.0,94,0.00,,,0.00,0,Wunderground v.1.15,2013-06-17 09:11:00,
2013-06-17 05:17:00,54.4,52.7,29.75,South,179,0.0,0.0,94,0.00,,,0.00,5,Wunderground v.1.15,2013-06-17 09:17:00,
2013-06-17 05:22:00,54.5,52.8,29.75,South,179,0.0,0.0,94,0.00,,,0.00,5,Wunderground v.1.15,2013-06-17 09:22:00,
2013-06-17 05:28:00,54.5,52.8,29.75,South,179,0.0,0.0,94,0.00,,,0.00,14,Wunderground v.1.15,2013-06-17 09:28:00,
2013-06-17 05:34:00,54.5,52.8,29.75,South,179,0.0,0.0,94,0.00,,,0.00,16,Wunderground v.1.15,2013-06-17 09:34:00,
2013-06-17 05:40:00,54.5,52.8,29.75,South,179,0.0,0.0,94,0.00,,,0.00,19,Wunderground v.1.15,2013-06-17 09:40:00,
2013-06-17 05:46:00,54.7,53.3,29.75,South,179,0.0,0.0,95,0.00,,,0.00,26,Wunderground v.1.15,2013-06-17 09:46:00,
2013-06-17 05:51:00,55.0,53.6,29.75,South,179,0.0,0.0,95,0.00,,,0.00,12,Wunderground v.1.15,2013-06-17 09:51:00,
2013-06-17 05:56:00,55.1,53.7,29.75,South,179,0.0,0.0,95,0.00,,,0.00,14,Wunderground v.1.15,2013-06-17 09:56:00,
2013-06-17 06:01:00,55.3,53.9,29.75,South,179,0.0,0.0,95,0.00,,,0.00,23,Wunderground v.1.15,2013-06-17 10:01:00,
2013-06-17 06:07:00,55.6,54.2,29.75,South,179,0.0,0.0,95,0.00,,,0.00,19,Wunderground v.1.15,2013-06-17 10:07:00,
2013-06-17 06:13:00,55.7,54.3,29.75,South,179,0.0,0.0,95,0.00,,,0.00,16,Wunderground v.1.15,2013-06-17 10:13:00,
2013-06-17 06:18:00,55.6,54.2,29.75,South,179,0.0,0.0,95,0.00,,,0.00,18,Wunderground v.1.15,2013-06-17 10:18:00,
2013-06-17 06:24:00,55.6,54.2,29.75,South,179,0.0,0.0,95,0.00,,,0.00,26,Wunderground v.1.15,2013-06-17 10:24:00,
2013-06-17 06:29:00,55.7,54.3,29.75,South,179,0.0,1.0,95,0.00,,,0.00,23,Wunderground v.1.15,2013-06-17 10:29:00,
2013-06-17 06:36:00,55.9,54.5,29.75,South,179,0.0,0.0,95,0.00,,,0.00,54,Wunderground v.1.15,2013-06-17 10:36:00,
2013-06-17 06:41:00,56.0,54.6,29.75,South,179,0.0,0.0,95,0.00,,,0.00,53,Wunderground v.1.15,2013-06-17 10:41:00,
2013-06-17 06:47:00,56.3,54.9,29.76,South,179,0.0,0.0,95,0.00,,,0.00,44,Wunderground v.1.15,2013-06-17 10:47:00,
2013-06-17 06:52:00,56.5,55.1,29.76,South,179,0.0,0.0,95,0.00,,,0.00,44,Wunderground v.1.15,2013-06-17 10:52:00,
2013-06-17 06:58:00,56.9,55.5,29.76,South,179,0.0,0.0,95,0.00,,,0.00,51,Wunderground v.1.15,2013-06-17 10:58:00,
2013-06-17 07:04:00,57.2,55.8,29.77,South,179,0.0,0.0,95,0.00,,,0.00,65,Wunderground v.1.15,2013-06-17 11:04:00,
2013-06-17 07:10:00,57.6,56.2,29.77,South,179,0.0,0.0,95,0.00,,,0.00,49,Wunderground v.1.15,2013-06-17 11:10:00,
2013-06-17 07:15:00,58.1,56.7,29.77,South,179,0.0,0.0,95,0.00,,,0.00,51,Wunderground v.1.15,2013-06-17 11:15:00,
2013-06-17 07:21:00,58.7,57.3,29.77,South,179,0.0,0.0,95,0.00,,,0.00,54,Wunderground v.1.15,2013-06-17 11:21:00,
2013-06-17 07:26:00,59.0,57.6,29.77,South,187,0.0,2.0,95,0.00,,,0.00,83,Wunderground v.1.15,2013-06-17 11:26:00,
2013-06-17 07:32:00,59.5,58.1,29.77,South,187,0.0,0.0,95,0.00,,,0.00,84,Wunderground v.1.15,2013-06-17 11:32:00,
2013-06-17 07:38:00,59.9,58.5,29.77,South,187,0.0,0.0,95,0.00,,,0.00,65,Wunderground v.1.15,2013-06-17 11:38:00,
2013-06-17 07:43:00,60.2,58.8,29.77,South,187,0.0,1.0,95,0.00,,,0.00,54,Wunderground v.1.15,2013-06-17 11:43:00,
2013-06-17 07:49:00,60.5,59.1,29.77,South,187,0.0,1.0,95,0.00,,,0.00,77,Wunderground v.1.15,2013-06-17 11:49:00,
2013-06-17 07:55:00,60.9,59.5,29.77,South,187,0.0,1.0,95,0.00,,,0.00,76,Wunderground v.1.15,2013-06-17 11:55:00,
2013-06-17 08:01:00,61.2,59.8,29.77,South,187,0.0,0.0,95,0.00,,,0.00,127,Wunderground v.1.15,2013-06-17 12:01:00,
2013-06-17 08:06:00,61.5,60.1,29.77,South,187,0.0,1.0,95,0.00,,,0.00,132,Wunderground v.1.15,2013-06-17 12:06:00,
2013-06-17 08:11:00,61.8,60.4,29.77,South,187,0.0,4.0,95,0.00,,,0.00,162,Wunderground v.1.15,2013-06-17 12:11:00,
2013-06-17 08:17:00,62.0,60.6,29.77,SSE,167,0.0,4.0,95,0.00,,,0.00,95,Wunderground v.1.15,2013-06-17 12:17:00,
2013-06-17 08:22:00,62.1,60.7,29.77,SSW,193,0.0,1.0,95,0.00,,,0.00,123,Wunderground v.1.15,2013-06-17 12:22:00,
2013-06-17 08:28:00,62.4,60.9,29.77,SSW,193,0.0,1.0,95,0.00,,,0.00,77,Wunderground v.1.15,2013-06-17 12:28:00,
2013-06-17 08:34:00,62.7,61.2,29.77,SSW,193,0.0,0.0,95,0.00,,,0.00,74,Wunderground v.1.15,2013-06-17 12:34:00,
2013-06-17 08:39:00,63.1,61.6,29.77,SE,127,0.0,2.0,95,0.00,,,0.00,104,Wunderground v.1.15,2013-06-17 12:39:00,
2013-06-17 08:46:00,63.5,61.7,29.77,SE,128,0.0,1.0,94,0.00,,,0.00,466,Wunderground v.1.15,2013-06-17 12:46:00,
2013-06-17 08:51:00,64.2,62.4,29.77,South,186,0.0,0.0,94,0.00,,,0.00,555,Wunderground v.1.15,2013-06-17 12:51:00,
2013-06-17 08:57:00,65.3,63.5,29.77,South,186,0.0,0.0,94,0.00,,,0.00,571,Wunderground v.1.15,2013-06-17 12:57:00,
2013-06-17 09:02:00,66.3,64.2,29.77,SSE,162,0.0,2.0,93,0.00,,,0.00,591,Wunderground v.1.15,2013-06-17 13:02:00,
2013-06-17 09:08:00,67.3,64.6,29.77,South,191,0.0,2.0,91,0.00,,,0.00,599,Wunderground v.1.15,2013-06-17 13:08:00,
2013-06-17 09:13:00,67.8,64.4,29.77,South,191,0.0,0.0,89,0.00,,,0.00,656,Wunderground v.1.15,2013-06-17 13:13:00,
2013-06-17 09:18:00,68.4,64.0,29.77,South,191,0.0,0.0,86,0.00,,,0.00,668,Wunderground v.1.15,2013-06-17 13:18:00,
2013-06-17 09:24:00,69.4,64.4,29.77,South,191,0.0,0.0,84,0.00,,,0.00,670,Wunderground v.1.15,2013-06-17 13:24:00,
2013-06-17 09:31:00,70.3,63.5,29.76,South,189,0.0,0.0,79,0.00,,,0.00,701,Wunderground v.1.15,2013-06-17 13:31:00,
2013-06-17 09:36:00,70.6,62.3,29.76,SSW,198,0.0,0.0,75,0.00,,,0.00,731,Wunderground v.1.15,2013-06-17 13:36:00,
2013-06-17 09:41:00,71.5,63.2,29.76,South,189,0.0,0.0,75,0.00,,,0.00,649,Wunderground v.1.15,2013-06-17 13:41:00,
2013-06-17 09:47:00,71.6,62.1,29.76,NW,316,0.0,0.0,72,0.00,,,0.00,840,Wunderground v.1.15,2013-06-17 13:47:00,
2013-06-17 09:53:00,72.5,63.0,29.76,SE,136,0.0,0.0,72,0.00,,,0.00,200,Wunderground v.1.15,2013-06-17 13:53:00,
2013-06-17 09:58:00,72.8,63.2,29.76,SE,136,0.0,0.0,72,0.00,,,0.00,225,Wunderground v.1.15,2013-06-17 13:58:00,
2013-06-17 10:04:00,72.5,62.2,29.76,WSW,257,0.0,0.0,70,0.00,,,0.00,304,Wunderground v.1.15,2013-06-17 14:04:00,
2013-06-17 10:10:00,72.0,62.5,29.76,NW,304,0.0,0.0,72,0.00,,,0.00,190,Wunderground v.1.15,2013-06-17 14:10:00,
2013-06-17 10:16:00,71.6,61.7,29.75,ENE,70,0.0,4.0,71,0.00,,,0.00,193,Wunderground v.1.15,2013-06-17 14:16:00,
2013-06-17 10:21:00,72.5,62.2,29.75,ENE,65,0.0,0.0,70,0.00,,,0.00,1046,Wunderground v.1.15,2013-06-17 14:21:00,
2013-06-17 10:26:00,73.5,63.1,29.75,SE,146,0.0,0.0,70,0.00,,,0.00,893,Wunderground v.1.15,2013-06-17 14:26:00,
2013-06-17 10:32:00,73.5,60.6,29.76,East,89,0.0,3.0,64,0.00,,,0.00,1049,Wunderground v.1.15,2013-06-17 14:32:00,
2013-06-17 10:38:00,73.9,61.4,29.76,ESE,120,0.0,3.0,65,0.00,,,0.00,334,Wunderground v.1.15,2013-06-17 14:38:00,
2013-06-17 10:44:00,74.0,62.8,29.76,South,176,0.0,0.0,68,0.00,,,0.00,373,Wunderground v.1.15,2013-06-17 14:44:00,
2013-06-17 10:49:00,74.2,62.1,29.75,South,176,0.0,0.0,66,0.00,,,0.00,1085,Wunderground v.1.15,2013-06-17 14:49:00,
2013-06-17 10:56:00,74.7,61.7,29.75,SE,128,0.0,1.0,64,0.00,,,0.00,318,Wunderground v.1.15,2013-06-17 14:56:00,
2013-06-17 11:01:00,74.9,63.2,29.75,SE,128,0.0,0.0,67,0.00,,,0.00,376,Wunderground v.1.15,2013-06-17 15:01:00,
2013-06-17 11:07:00,75.1,63.8,29.75,NE,41,0.0,1.0,68,0.00,,,0.00,998,Wunderground v.1.15,2013-06-17 15:07:00,
2013-06-17 11:12:00,75.8,63.2,29.75,North,4,0.0,1.0,65,0.00,,,0.00,1044,Wunderground v.1.15,2013-06-17 15:12:00,
2013-06-17 11:17:00,76.0,62.0,29.75,SSE,160,0.0,1.0,62,0.00,,,0.00,257,Wunderground v.1.15,2013-06-17 15:17:00,
2013-06-17 11:23:00,75.8,61.4,29.75,SSE,160,0.0,1.0,61,0.00,,,0.00,257,Wunderground v.1.15,2013-06-17 15:23:00,
2013-06-17 11:29:00,75.4,61.5,29.75,ESE,123,0.0,1.0,62,0.00,,,0.00,262,Wunderground v.1.15,2013-06-17 15:29:00,
2013-06-17 11:34:00,75.1,61.6,29.75,SE,134,0.0,1.0,63,0.00,,,0.00,221,Wunderground v.1.15,2013-06-17 15:34:00,
2013-06-17 11:41:00,74.6,60.7,29.75,WNW,288,0.0,0.0,62,0.00,,,0.00,190,Wunderground v.1.15,2013-06-17 15:41:00,
2013-06-17 11:46:00,73.5,59.7,29.75,West,273,0.0,2.0,62,0.00,,,0.00,287,Wunderground v.1.15,2013-06-17 15:46:00,
2013-06-17 11:52:00,73.2,60.7,29.75,WSW,238,0.0,0.0,65,0.00,,,0.00,290,Wunderground v.1.15,2013-06-17 15:52:00,
2013-06-17 11:58:00,73.5,61.4,29.75,SSW,210,0.0,0.0,66,0.00,,,0.00,360,Wunderground v.1.15,2013-06-17 15:58:00,
2013-06-17 12:03:00,73.5,61.4,29.74,West,279,0.0,3.0,66,0.00,,,0.00,343,Wunderground v.1.15,2013-06-17 16:03:00,
2013-06-17 12:09:00,73.5,61.0,29.74,South,174,0.0,3.0,65,0.00,,,0.00,330,Wunderground v.1.15,2013-06-17 16:09:00,
2013-06-17 12:14:00,73.7,61.2,29.75,South,174,0.0,0.0,65,0.00,,,0.00,332,Wunderground v.1.15,2013-06-17 16:14:00,
2013-06-17 12:21:00,73.9,60.5,29.75,SW,236,0.0,0.0,63,0.00,,,0.00,1174,Wunderground v.1.15,2013-06-17 16:21:00,
2013-06-17 12:26:00,74.9,60.5,29.75,ESE,117,0.0,1.0,61,0.00,,,0.00,1007,Wunderground v.1.15,2013-06-17 16:26:00,
2013-06-17 12:32:00,75.8,59.0,29.74,WNW,282,0.0,4.0,56,0.00,,,0.00,1071,Wunderground v.1.15,2013-06-17 16:32:00,
2013-06-17 12:37:00,76.0,57.6,29.74,South,188,0.0,4.0,53,0.00,,,0.00,415,Wunderground v.1.15,2013-06-17 16:37:00,
2013-06-17 12:43:00,76.3,59.9,29.74,SSE,150,1.0,1.0,57,0.00,,,0.00,394,Wunderground v.1.15,2013-06-17 16:43:00,
2013-06-17 12:49:00,76.0,57.1,29.74,WNW,297,0.0,1.0,52,0.00,,,0.00,847,Wunderground v.1.15,2013-06-17 16:49:00,
2013-06-17 12:56:00,76.3,59.9,29.74,SE,139,0.0,0.0,57,0.00,,,0.00,325,Wunderground v.1.15,2013-06-17 16:56:00,
2013-06-17 13:01:00,76.1,59.8,29.73,SE,139,0.0,0.0,57,0.00,,,0.00,278,Wunderground v.1.15,2013-06-17 17:01:00,
2013-06-17 13:07:00,75.4,58.1,29.73,West,277,0.0,2.0,55,0.00,,,0.00,415,Wunderground v.1.15,2013-06-17 17:07:00,
2013-06-17 13:13:00,75.3,60.0,29.73,West,276,0.0,0.0,59,0.00,,,0.00,408,Wunderground v.1.15,2013-06-17 17:13:00,
2013-06-17 13:18:00,75.3,60.5,29.73,West,276,0.0,0.0,60,0.00,,,0.00,232,Wunderground v.1.15,2013-06-17 17:18:00,
2013-06-17 13:24:00,74.7,59.9,29.73,West,277,0.0,0.0,60,0.00,,,0.00,63,Wunderground v.1.15,2013-06-17 17:24:00,
2013-06-17 13:30:00,73.3,56.7,29.74,SSW,207,0.0,0.0,56,0.00,,,0.00,70,Wunderground v.1.15,2013-06-17 17:30:00,
2013-06-17 13:36:00,72.5,56.9,29.74,SSW,207,0.0,1.0,58,0.00,,,0.00,104,Wunderground v.1.15,2013-06-17 17:36:00,
2013-06-17 13:41:00,71.5,56.9,29.74,SSE,152,0.0,0.0,60,0.00,,,0.00,86,Wunderground v.1.15,2013-06-17 17:41:00,
2013-06-17 13:47:00,70.4,56.3,29.73,SSE,153,0.0,2.0,61,0.00,,,0.00,23,Wunderground v.1.15,2013-06-17 17:47:00,
2013-06-17 13:52:00,69.9,58.0,29.73,SSE,153,0.0,0.0,66,0.00,,,0.00,7,Wunderground v.1.15,2013-06-17 17:52:00,
2013-06-17 13:58:00,68.1,57.9,29.73,NNW,333,0.0,2.0,70,0.17,,,0.03,25,Wunderground v.1.15,2013-06-17 17:58:00,
2013-06-17 14:04:00,65.5,58.5,29.79,North,356,1.0,1.0,78,1.75,,,0.12,83,Wunderground v.1.15,2013-06-17 18:04:00,
2013-06-17 14:09:00,64.8,59.2,29.79,North,356,0.0,1.0,82,0.15,,,0.13,278,Wunderground v.1.15,2013-06-17 18:09:00,
2013-06-17 14:16:00,65.2,60.9,29.78,North,356,0.0,0.0,86,0.06,,,0.13,332,Wunderground v.1.15,2013-06-17 18:16:00,
2013-06-17 14:21:00,65.6,61.6,29.78,North,356,0.0,0.0,87,0.04,,,0.13,406,Wunderground v.1.15,2013-06-17 18:21:00,
2013-06-17 14:27:00,66.0,62.3,29.78,North,356,0.0,0.0,88,0.00,,,0.13,1020,Wunderground v.1.15,2013-06-17 18:27:00,
2013-06-17 14:32:00,67.1,63.7,29.79,North,356,0.0,0.0,89,0.00,,,0.13,925,Wunderground v.1.15,2013-06-17 18:32:00,
2013-06-17 14:38:00,67.8,62.4,29.79,NE,54,0.0,1.0,83,0.00,,,0.13,937,Wunderground v.1.15,2013-06-17 18:38:00,
2013-06-17 14:44:00,68.9,63.9,29.79,NE,54,0.0,0.0,84,0.00,,,0.13,780,Wunderground v.1.15,2013-06-17 18:44:00,
2013-06-17 14:49:00,70.1,63.6,29.79,NE,54,0.0,0.0,80,0.00,,,0.13,780,Wunderground v.1.15,2013-06-17 18:49:00,
2013-06-17 14:56:00,70.3,63.5,29.79,NE,54,0.0,0.0,79,0.00,,,0.13,294,Wunderground v.1.15,2013-06-17 18:56:00,
2013-06-17 15:01:00,70.4,63.2,29.79,NE,54,0.0,0.0,78,0.00,,,0.13,359,Wunderground v.1.15,2013-06-17 19:01:00,
2013-06-17 15:07:00,70.1,63.6,29.79,NE,54,0.0,0.0,80,0.00,,,0.13,457,Wunderground v.1.15,2013-06-17 19:07:00,
2013-06-17 15:12:00,70.3,62.7,29.79,NE,55,0.0,0.0,77,0.00,,,0.13,292,Wunderground v.1.15,2013-06-17 19:12:00,
2013-06-17 15:17:00,70.1,62.6,29.78,NE,55,0.0,0.0,77,0.00,,,0.13,301,Wunderground v.1.15,2013-06-17 19:17:00,
2013-06-17 15:23:00,70.3,63.8,29.78,NE,54,0.0,0.0,80,0.00,,,0.13,227,Wunderground v.1.15,2013-06-17 19:23:00,
2013-06-17 15:28:00,70.4,63.9,29.78,NE,55,0.0,0.0,80,0.00,,,0.13,204,Wunderground v.1.15,2013-06-17 19:28:00,
2013-06-17 15:34:00,70.3,63.8,29.78,NE,55,0.0,0.0,80,0.00,,,0.13,153,Wunderground v.1.15,2013-06-17 19:34:00,
2013-06-17 15:39:00,70.1,63.3,29.78,NE,55,0.0,0.0,79,0.00,,,0.13,104,Wunderground v.1.15,2013-06-17 19:39:00,
2013-06-17 15:45:00,69.8,63.3,29.78,NE,55,0.0,0.0,80,0.00,,,0.13,91,Wunderground v.1.15,2013-06-17 19:45:00,
2013-06-17 15:51:00,69.4,63.0,29.78,NE,55,0.0,0.0,80,0.00,,,0.13,60,Wunderground v.1.15,2013-06-17 19:51:00,
2013-06-17 15:56:00,69.1,61.9,29.78,NE,55,0.0,0.0,78,0.00,,,0.13,30,Wunderground v.1.15,2013-06-17 19:56:00,
2013-06-17 16:01:00,68.6,61.5,29.80,NE,55,0.0,0.0,78,0.00,,,0.14,83,Wunderground v.1.15,2013-06-17 20:01:00,
2013-06-17 16:07:00,67.6,61.6,29.80,NE,55,0.0,0.0,81,0.00,,,0.14,135,Wunderground v.1.15,2013-06-17 20:07:00,
2013-06-17 16:13:00,67.4,62.1,29.80,NE,55,0.0,0.0,83,0.06,,,0.15,239,Wunderground v.1.15,2013-06-17 20:13:00,
2013-06-17 16:19:00,67.6,62.9,29.78,NE,55,0.0,0.0,85,0.06,,,0.15,193,Wunderground v.1.15,2013-06-17 20:19:00,
2013-06-17 16:24:00,67.6,62.9,29.78,NE,55,0.0,0.0,85,0.04,,,0.15,192,Wunderground v.1.15,2013-06-17 20:24:00,
2013-06-17 16:31:00,67.9,63.6,29.78,NE,55,0.0,0.0,86,0.00,,,0.15,292,Wunderground v.1.15,2013-06-17 20:31:00,
2013-06-17 16:36:00,68.4,64.0,29.78,NE,55,0.0,0.0,86,0.00,,,0.15,156,Wunderground v.1.15,2013-06-17 20:36:00,
2013-06-17 16:42:00,69.3,64.9,29.78,NE,55,0.0,0.0,86,0.00,,,0.15,552,Wunderground v.1.15,2013-06-17 20:42:00,
2013-06-17 16:47:00,69.9,64.5,29.78,NE,55,0.0,0.0,83,0.00,,,0.15,114,Wunderground v.1.15,2013-06-17 20:47:00,
2013-06-17 16:53:00,70.4,65.0,29.78,NE,55,0.0,0.0,83,0.00,,,0.15,534,Wunderground v.1.15,2013-06-17 20:53:00,
2013-06-17 16:58:00,70.9,64.1,29.78,NE,55,0.0,0.0,79,0.00,,,0.15,102,Wunderground v.1.15,2013-06-17 20:58:00,
2013-06-17 17:04:00,70.9,63.3,29.78,NE,55,0.0,0.0,77,0.00,,,0.15,107,Wunderground v.1.15,2013-06-17 21:04:00,
2013-06-17 17:10:00,70.4,62.8,29.78,NE,55,0.0,0.0,77,0.00,,,0.15,86,Wunderground v.1.15,2013-06-17 21:10:00,
2013-06-17 17:16:00,70.3,62.7,29.78,NE,55,0.0,0.0,77,0.00,,,0.15,83,Wunderground v.1.15,2013-06-17 21:16:00,
2013-06-17 17:21:00,69.9,62.7,29.78,NE,55,0.0,0.0,78,0.00,,,0.15,86,Wunderground v.1.15,2013-06-17 21:21:00,
2013-06-17 17:27:00,69.4,62.6,29.78,NE,55,0.0,0.0,79,0.00,,,0.15,54,Wunderground v.1.15,2013-06-17 21:27:00,
2013-06-17 17:32:00,68.4,61.3,29.80,ENE,63,0.0,0.0,78,0.00,,,0.15,32,Wunderground v.1.15,2013-06-17 21:32:00,
2013-06-17 17:38:00,67.1,60.4,29.80,ENE,63,0.0,0.0,79,0.00,,,0.16,51,Wunderground v.1.15,2013-06-17 21:38:00,
2013-06-17 17:44:00,66.3,60.6,29.80,ENE,63,0.0,0.0,82,0.08,,,0.17,37,Wunderground v.1.15,2013-06-17 21:44:00,
2013-06-17 17:49:00,65.6,60.3,29.80,ENE,63,0.0,0.0,83,0.08,,,0.17,25,Wunderground v.1.15,2013-06-17 21:49:00,
2013-06-17 17:55:00,65.2,60.6,29.80,ENE,63,0.0,0.0,85,0.04,,,0.17,40,Wunderground v.1.15,2013-06-17 21:55:00,
2013-06-17 18:01:00,65.0,60.7,29.80,ENE,63,0.0,0.0,86,0.00,,,0.17,65,Wunderground v.1.15,2013-06-17 22:01:00,
2013-06-17 18:06:00,65.0,60.7,29.80,ENE,63,0.0,0.0,86,0.00,,,0.17,121,Wunderground v.1.15,2013-06-17 22:06:00,
2013-06-17 18:11:00,65.2,61.2,29.80,ENE,63,0.0,0.0,87,0.00,,,0.17,93,Wunderground v.1.15,2013-06-17 22:11:00,
2013-06-17 18:17:00,65.2,61.2,29.80,ENE,63,0.0,0.0,87,0.00,,,0.17,113,Wunderground v.1.15,2013-06-17 22:17:00,
2013-06-17 18:23:00,65.3,61.3,29.80,ENE,63,0.0,0.0,87,0.00,,,0.17,40,Wunderground v.1.15,2013-06-17 22:23:00,
2013-06-17 18:28:00,65.2,61.2,29.80,ENE,69,0.0,0.0,87,0.00,,,0.17,49,Wunderground v.1.15,2013-06-17 22:28:00,
2013-06-17 18:34:00,65.0,61.0,29.80,ENE,69,0.0,0.0,87,0.00,,,0.17,44,Wunderground v.1.15,2013-06-17 22:34:00,
2013-06-17 18:39:00,65.0,61.0,29.80,ENE,69,0.0,0.0,87,0.00,,,0.17,49,Wunderground v.1.15,2013-06-17 22:39:00,
2013-06-17 18:46:00,64.5,60.5,29.80,ENE,69,0.0,0.0,87,0.00,,,0.17,26,Wunderground v.1.15,2013-06-17 22:46:00,
2013-06-17 18:51:00,64.3,60.7,29.80,ENE,69,0.0,0.0,88,0.00,,,0.17,28,Wunderground v.1.15,2013-06-17 22:51:00,
2013-06-17 18:57:00,64.3,60.7,29.80,ENE,69,0.0,0.0,88,0.00,,,0.17,25,Wunderground v.1.15,2013-06-17 22:57:00,
2013-06-17 19:02:00,64.2,60.6,29.81,ENE,69,0.0,0.0,88,0.00,,,0.17,42,Wunderground v.1.15,2013-06-17 23:02:00,
2013-06-17 19:08:00,64.0,60.4,29.81,ENE,69,0.0,0.0,88,0.00,,,0.17,49,Wunderground v.1.15,2013-06-17 23:08:00,
2013-06-17 19:13:00,63.9,60.3,29.81,ENE,69,0.0,0.0,88,0.00,,,0.17,54,Wunderground v.1.15,2013-06-17 23:13:00,
2013-06-17 19:19:00,63.9,60.6,29.82,ENE,69,0.0,0.0,89,0.00,,,0.17,60,Wunderground v.1.15,2013-06-17 23:19:00,
2013-06-17 19:24:00,64.2,61.2,29.82,ENE,69,0.0,0.0,90,0.00,,,0.17,77,Wunderground v.1.15,2013-06-17 23:24:00,
2013-06-17 19:31:00,65.3,62.3,29.82,ENE,69,0.0,0.0,90,0.00,,,0.17,47,Wunderground v.1.15,2013-06-17 23:31:00,
2013-06-17 19:36:00,66.1,63.1,29.82,ENE,69,0.0,0.0,90,0.00,,,0.17,42,Wunderground v.1.15,2013-06-17 23:36:00,
2013-06-17 19:41:00,66.9,62.9,29.82,ENE,69,0.0,0.0,87,0.00,,,0.17,30,Wunderground v.1.15,2013-06-17 23:41:00,
2013-06-17 19:47:00,67.3,62.6,29.83,ENE,69,0.0,0.0,85,0.00,,,0.17,32,Wunderground v.1.15,2013-06-17 23:47:00,
2013-06-17 19:53:00,67.3,62.3,29.83,ENE,69,0.0,0.0,84,0.00,,,0.17,16,Wunderground v.1.15,2013-06-17 23:53:00,
2013-06-17 19:58:00,67.4,62.1,29.83,ENE,69,0.0,0.0,83,0.00,,,0.17,26,Wunderground v.1.15,2013-06-17 23:58:00,
2013-06-17 20:04:00,67.3,61.6,29.83,ENE,69,0.0,0.0,82,0.00,,,0.17,23,Wunderground v.1.15,2013-06-18 00:04:00,
2013-06-17 20:10:00,66.3,60.3,29.83,SE,139,0.0,0.0,81,0.00,,,0.17,19,Wunderground v.1.15,2013-06-18 00:10:00,
2013-06-17 20:15:00,65.3,59.7,29.83,SE,139,0.0,0.0,82,0.00,,,0.17,7,Wunderground v.1.15,2013-06-18 00:15:00,
2013-06-17 20:21:00,64.5,59.2,29.83,SE,139,0.0,0.0,83,0.00,,,0.17,5,Wunderground v.1.15,2013-06-18 00:21:00,
2013-06-17 20:26:00,63.9,59.3,29.83,SE,139,0.0,0.0,85,0.00,,,0.17,5,Wunderground v.1.15,2013-06-18 00:26:00,
2013-06-17 20:32:00,63.2,58.9,29.83,SE,139,0.0,0.0,86,0.00,,,0.17,5,Wunderground v.1.15,2013-06-18 00:32:00,
2013-06-17 20:38:00,62.7,58.5,29.83,SE,138,0.0,0.0,86,0.00,,,0.17,0,Wunderground v.1.15,2013-06-18 00:38:00,
2013-06-17 20:43:00,62.3,58.1,29.83,SE,138,0.0,0.0,86,0.00,,,0.17,0,Wunderground v.1.15,2013-06-18 00:43:00,
2013-06-17 20:49:00,61.8,57.9,29.83,SE,138,0.0,0.0,87,0.00,,,0.17,0,Wunderground v.1.15,2013-06-18 00:49:00,
2013-06-17 20:56:00,61.3,57.4,29.83,SE,138,0.0,0.0,87,0.00,,,0.17,0,Wunderground v.1.15,2013-06-18 00:56:00,
2013-06-17 21:01:00,61.2,57.3,29.84,SE,138,0.0,0.0,87,0.00,,,0.17,0,Wunderground v.1.15,2013-06-18 01:01:00,
2013-06-17 21:06:00,60.9,57.3,29.84,SE,138,0.0,0.0,88,0.00,,,0.17,0,Wunderground v.1.15,2013-06-18 01:06:00,
2013-06-17 21:11:00,60.7,57.1,29.84,SE,138,0.0,0.0,88,0.00,,,0.17,0,Wunderground v.1.15,2013-06-18 01:11:00,
2013-06-17 21:17:00,60.5,57.2,29.84,SE,138,0.0,0.0,89,0.00,,,0.17,0,Wunderground v.1.15,2013-06-18 01:17:00,
2013-06-17 21:22:00,60.2,56.9,29.84,SE,138,0.0,0.0,89,0.00,,,0.17,0,Wunderground v.1.15,2013-06-18 01:22:00,
2013-06-17 21:28:00,60.1,56.8,29.84,SE,138,0.0,0.0,89,0.00,,,0.17,0,Wunderground v.1.15,2013-06-18 01:28:00,
2013-06-17 21:34:00,59.9,56.6,29.85,SE,138,0.0,0.0,89,0.00,,,0.17,0,Wunderground v.1.15,2013-06-18 01:34:00,
2013-06-17 21:41:00,59.6,56.4,29.85,SE,138,0.0,0.0,89,0.00,,,0.17,0,Wunderground v.1.15,2013-06-18 01:41:00,
2013-06-17 21:46:00,59.5,56.3,29.86,SE,138,0.0,0.0,89,0.00,,,0.17,0,Wunderground v.1.15,2013-06-18 01:46:00,
2013-06-17 21:51:00,59.2,56.0,29.86,SE,138,0.0,0.0,89,0.00,,,0.17,0,Wunderground v.1.15,2013-06-18 01:51:00,
2013-06-17 21:57:00,58.9,55.7,29.86,SE,138,0.0,0.0,89,0.00,,,0.17,0,Wunderground v.1.15,2013-06-18 01:57:00,
2013-06-17 22:03:00,58.7,55.5,29.86,SE,138,0.0,0.0,89,0.00,,,0.17,0,Wunderground v.1.15,2013-06-18 02:03:00,
2013-06-17 22:09:00,58.4,55.2,29.86,SE,138,0.0,0.0,89,0.00,,,0.17,0,Wunderground v.1.15,2013-06-18 02:09:00,
2013-06-17 22:14:00,58.4,55.2,29.86,SE,138,0.0,0.0,89,0.00,,,0.17,0,Wunderground v.1.15,2013-06-18 02:14:00,
2013-06-17 22:21:00,58.1,54.9,29.86,SE,138,0.0,0.0,89,0.00,,,0.17,0,Wunderground v.1.15,2013-06-18 02:21:00,
2013-06-17 22:26:00,57.8,54.9,29.86,SE,138,0.0,0.0,90,0.00,,,0.17,0,Wunderground v.1.15,2013-06-18 02:26:00,
2013-06-17 22:32:00,57.6,54.7,29.87,SE,138,0.0,0.0,90,0.00,,,0.17,0,Wunderground v.1.15,2013-06-18 02:32:00,
2013-06-17 22:38:00,57.5,54.6,29.87,SE,138,0.0,0.0,90,0.00,,,0.17,0,Wunderground v.1.15,2013-06-18 02:38:00,
2013-06-17 22:43:00,57.5,54.6,29.87,SE,138,0.0,0.0,90,0.00,,,0.17,0,Wunderground v.1.15,2013-06-18 02:43:00,
2013-06-17 22:49:00,57.3,54.4,29.87,SE,138,0.0,0.0,90,0.00,,,0.17,0,Wunderground v.1.15,2013-06-18 02:49:00,
2013-06-17 22:54:00,57.3,54.7,29.87,SE,138,0.0,0.0,91,0.00,,,0.17,0,Wunderground v.1.15,2013-06-18 02:54:00,
2013-06-17 23:01:00,57.3,54.7,29.88,SE,138,0.0,0.0,91,0.00,,,0.17,0,Wunderground v.1.15,2013-06-18 03:01:00,
2013-06-17 23:06:00,57.5,54.9,29.88,SE,138,0.0,0.0,91,0.00,,,0.17,0,Wunderground v.1.15,2013-06-18 03:06:00,
2013-06-17 23:11:00,57.5,54.9,29.88,SE,138,0.0,0.0,91,0.00,,,0.17,0,Wunderground v.1.15,2013-06-18 03:11:00,
2013-06-17 23:17:00,57.5,54.9,29.89,SE,138,0.0,0.0,91,0.00,,,0.17,0,Wunderground v.1.15,2013-06-18 03:17:00,
2013-06-17 23:22:00,57.5,54.6,29.89,SE,138,0.0,0.0,90,0.00,,,0.17,0,Wunderground v.1.15,2013-06-18 03:22:00,
2013-06-17 23:28:00,57.6,54.7,29.89,South,181,0.0,2.0,90,0.00,,,0.17,0,Wunderground v.1.15,2013-06-18 03:28:00,
2013-06-17 23:34:00,57.8,54.9,29.89,South,181,0.0,0.0,90,0.00,,,0.17,0,Wunderground v.1.15,2013-06-18 03:34:00,
2013-06-17 23:40:00,57.8,54.9,29.89,South,181,0.0,3.0,90,0.00,,,0.17,0,Wunderground v.1.15,2013-06-18 03:40:00,
2013-06-17 23:46:00,57.6,54.7,29.90,South,181,0.0,3.0,90,0.00,,,0.17,0,Wunderground v.1.15,2013-06-18 03:46:00,
2013-06-17 23:51:00,57.6,54.7,29.90,South,181,0.0,0.0,90,0.00,,,0.17,0,Wunderground v.1.15,2013-06-18 03:51:00,
2013-06-17 23:57:00,57.5,54.6,29.90,South,181,0.0,0.0,90,0.00,,,0.17,0,Wunderground v.1.15,2013-06-18 03:57:00,